createdAt,value
2022-08-27T00:02:11.299Z,1.30
2022-08-27T00:04:41.881Z,1.20
2022-08-27T00:07:12.353Z,1.40
2022-08-27T00:09:41.437Z,1.30
2022-08-27T00:12:10.543Z,1.47
2022-08-27T00:14:39.590Z,1.10
2022-08-27T00:17:09.133Z,1.30
2022-08-27T00:19:37.919Z,1.60
2022-08-27T00:22:07.918Z,1.60
2022-08-27T00:24:38.349Z,1.40
2022-08-27T00:27:13.754Z,1.40
2022-08-27T00:29:42.187Z,1.27
2022-08-27T00:32:10.623Z,1.50
2022-08-27T00:34:39.213Z,1.63
2022-08-27T00:37:07.733Z,1.47
2022-08-27T00:39:37.912Z,5.10
2022-08-27T00:42:08.336Z,1.20
2022-08-27T00:44:37.615Z,1.20
2022-08-27T00:47:12.071Z,1.50
2022-08-27T00:49:43.378Z,1.17
2022-08-27T00:52:29.937Z,1.03
2022-08-27T00:55:12.699Z,1.10
2022-08-27T00:57:43.339Z,1.13
2022-08-27T01:00:16.027Z,1.17
2022-08-27T01:02:47.408Z,1.40
2022-08-27T01:05:22.521Z,1.40
2022-08-27T01:07:53.943Z,1.10
2022-08-27T01:10:26.980Z,1.23
2022-08-27T01:12:57.390Z,1.03
2022-08-27T01:15:30.021Z,1.00
2022-08-27T01:18:01.531Z,1.10
2022-08-27T01:20:38.079Z,1.00
2022-08-27T01:23:12.917Z,0.93
2022-08-27T01:25:47.547Z,0.90
2022-08-27T01:28:17.235Z,0.87
2022-08-27T01:30:51.831Z,0.80
2022-08-27T01:33:22.507Z,0.70
2022-08-27T01:35:53.929Z,0.70
2022-08-27T01:38:30.976Z,0.60
2022-08-27T01:41:02.098Z,0.50
2022-08-27T01:43:32.514Z,0.80
2022-08-27T01:46:01.495Z,0.83
2022-08-27T01:48:29.920Z,0.80
2022-08-27T01:50:59.498Z,0.83
2022-08-27T01:53:29.243Z,0.50
2022-08-27T01:55:58.811Z,0.80
2022-08-27T01:58:32.605Z,0.50
2022-08-27T02:01:07.268Z,0.60
2022-08-27T02:03:37.358Z,0.83
2022-08-27T02:06:12.113Z,0.70
2022-08-27T02:08:42.543Z,0.67
2022-08-27T02:11:11.167Z,0.70
2022-08-27T02:13:40.621Z,0.73
2022-08-27T02:16:09.821Z,0.60
2022-08-27T02:18:41.636Z,0.60
2022-08-27T02:21:10.336Z,0.70
2022-08-27T02:23:40.287Z,0.70
2022-08-27T02:26:08.645Z,0.53
2022-08-27T02:28:37.088Z,0.80
2022-08-27T02:31:05.991Z,0.87
2022-08-27T02:33:34.407Z,0.70
2022-08-27T02:36:02.866Z,0.70
2022-08-27T02:38:31.639Z,0.70
2022-08-27T02:41:00.079Z,0.80
2022-08-27T02:43:28.953Z,0.67
2022-08-27T02:45:58.192Z,0.73
2022-08-27T02:48:26.702Z,0.70
2022-08-27T02:50:55.731Z,0.70
2022-08-27T02:53:24.825Z,0.60
2022-08-27T02:55:53.195Z,0.60
2022-08-27T02:58:21.683Z,0.70
2022-08-27T03:00:50.284Z,0.77
2022-08-27T03:03:18.986Z,0.87
2022-08-27T03:05:47.396Z,0.90
2022-08-27T03:08:15.751Z,0.87
2022-08-27T03:10:44.097Z,0.43
2022-08-27T03:13:12.541Z,0.70
2022-08-27T03:15:40.962Z,0.80
2022-08-27T03:18:22.428Z,0.70
2022-08-27T03:20:53.323Z,0.70
2022-08-27T03:23:26.455Z,0.93
2022-08-27T03:25:58.011Z,0.90
2022-08-27T03:28:29.611Z,0.80
2022-08-27T03:31:02.596Z,0.60
2022-08-27T03:33:36.135Z,0.70
2022-08-27T03:36:05.549Z,1.03
2022-08-27T03:38:34.267Z,0.70
2022-08-27T03:41:03.876Z,0.70
2022-08-27T03:43:32.443Z,0.60
2022-08-27T03:46:02.371Z,0.70
2022-08-27T03:48:35.035Z,0.70
2022-08-27T03:51:13.234Z,0.50
2022-08-27T03:53:43.996Z,0.50
2022-08-27T03:56:12.628Z,0.60
2022-08-27T03:58:41.190Z,0.80
2022-08-27T04:01:10.232Z,0.60
2022-08-27T04:03:39.076Z,0.60
2022-08-27T04:06:07.815Z,0.80
2022-08-27T04:08:36.947Z,0.70
2022-08-27T04:11:08.728Z,0.70
2022-08-27T04:13:37.740Z,0.60
2022-08-27T04:16:07.289Z,0.70
2022-08-27T04:18:35.953Z,0.60
2022-08-27T04:21:16.401Z,0.60
2022-08-27T04:23:44.852Z,0.60
2022-08-27T04:26:13.500Z,0.50
2022-08-27T04:28:42.589Z,0.60
2022-08-27T04:31:17.835Z,0.70
2022-08-27T04:33:50.961Z,0.80
2022-08-27T04:36:20.420Z,0.70
2022-08-27T04:38:49.500Z,0.63
2022-08-27T04:41:20.777Z,0.80
2022-08-27T04:43:57.632Z,0.83
2022-08-27T04:46:32.630Z,0.60
2022-08-27T04:49:03.313Z,0.80
2022-08-27T04:51:37.779Z,0.63
2022-08-27T04:54:09.177Z,0.60
2022-08-27T04:56:38.711Z,0.70
2022-08-27T04:59:10.030Z,0.87
2022-08-27T05:01:39.903Z,0.50
2022-08-27T05:04:08.859Z,0.63
2022-08-27T05:06:40.076Z,0.50
2022-08-27T05:09:08.673Z,0.50
2022-08-27T05:11:37.032Z,0.70
2022-08-27T05:14:09.409Z,0.67
2022-08-27T05:16:38.243Z,0.70
2022-08-27T05:19:09.648Z,0.60
2022-08-27T05:21:40.947Z,0.50
2022-08-27T05:24:09.574Z,0.50
2022-08-27T05:26:38.396Z,0.60
2022-08-27T05:29:07.972Z,0.53
2022-08-27T05:31:36.985Z,0.53
2022-08-27T05:34:10.226Z,0.70
2022-08-27T05:36:47.790Z,1.07
2022-08-27T05:39:18.326Z,0.80
2022-08-27T05:41:46.830Z,0.70
2022-08-27T05:47:04.632Z,0.60
2022-08-27T05:49:33.026Z,0.40
2022-08-27T05:52:01.395Z,0.63
2022-08-27T05:54:29.842Z,0.40
2022-08-27T05:56:58.239Z,0.67
2022-08-27T05:59:44.685Z,0.50
2022-08-27T06:02:13.141Z,0.50
2022-08-27T06:04:41.652Z,0.40
2022-08-27T06:07:11.538Z,0.40
2022-08-27T06:09:40.792Z,0.40
2022-08-27T06:12:10.034Z,0.50
2022-08-27T06:14:39.168Z,0.50
2022-08-27T06:17:07.569Z,0.40
2022-08-27T06:19:37.160Z,0.40
2022-08-27T06:22:09.844Z,0.40
2022-08-27T06:24:43.253Z,0.33
2022-08-27T06:27:17.781Z,0.40
2022-08-27T06:29:46.747Z,0.60
2022-08-27T06:32:15.804Z,0.40
2022-08-27T06:34:44.395Z,0.43
2022-08-27T06:37:12.823Z,0.40
2022-08-27T06:39:41.297Z,0.47
2022-08-27T06:42:14.118Z,0.40
2022-08-27T06:44:42.897Z,0.40
2022-08-27T06:47:11.933Z,0.30
2022-08-27T06:49:43.457Z,0.40
2022-08-27T06:52:16.175Z,0.40
2022-08-27T06:54:45.817Z,0.50
2022-08-27T06:57:14.255Z,0.40
2022-08-27T06:59:42.664Z,0.60
2022-08-27T07:02:11.828Z,0.60
2022-08-27T07:04:40.247Z,0.63
2022-08-27T07:07:08.944Z,0.60
2022-08-27T07:09:37.421Z,0.70
2022-08-27T07:12:06.591Z,0.70
2022-08-27T07:14:37.981Z,0.70
2022-08-27T07:17:11.364Z,0.60
2022-08-27T07:19:45.295Z,0.83
2022-08-27T07:22:14.727Z,0.90
2022-08-27T07:24:43.126Z,0.60
2022-08-27T07:27:12.020Z,0.70
2022-08-27T07:29:40.929Z,0.73
2022-08-27T07:32:09.365Z,0.80
2022-08-27T07:34:37.864Z,0.67
2022-08-27T07:37:06.355Z,0.80
2022-08-27T07:39:34.752Z,0.90
2022-08-27T07:42:21.739Z,0.80
2022-08-27T07:44:50.749Z,0.73
2022-08-27T07:47:19.397Z,0.60
2022-08-27T07:49:48.598Z,0.90
2022-08-27T07:52:17.448Z,0.60
2022-08-27T07:54:45.979Z,0.67
2022-08-27T07:57:14.468Z,0.50
2022-08-27T07:59:42.876Z,0.77
2022-08-27T08:02:11.563Z,0.50
2022-08-27T08:04:40.123Z,0.67
2022-08-27T08:07:08.471Z,0.67
2022-08-27T08:09:36.844Z,0.60
2022-08-27T08:12:06.045Z,0.50
2022-08-27T08:14:34.556Z,0.60
2022-08-27T08:17:05.634Z,0.60
2022-08-27T08:19:39.243Z,0.70
2022-08-27T08:22:07.786Z,0.80
2022-08-27T08:24:37.257Z,0.83
2022-08-27T08:27:07.753Z,0.70
2022-08-27T08:29:36.556Z,0.87
2022-08-27T08:32:07.434Z,0.80
2022-08-27T08:34:36.847Z,0.67
2022-08-27T08:37:06.767Z,0.60
2022-08-27T08:39:36.425Z,0.80
2022-08-27T08:42:07.655Z,0.80
2022-08-27T08:44:38.455Z,0.80
2022-08-27T08:47:21.771Z,0.60
2022-08-27T08:49:56.306Z,0.60
2022-08-27T08:53:00.086Z,0.60
2022-08-27T08:55:56.795Z,0.60
2022-08-27T08:58:28.183Z,0.77
2022-08-27T09:01:02.276Z,0.57
2022-08-27T09:03:34.307Z,0.70
2022-08-27T09:06:28.379Z,0.60
2022-08-27T09:08:57.262Z,0.60
2022-08-27T09:11:34.628Z,0.80
2022-08-27T09:14:09.269Z,0.50
2022-08-27T09:16:40.081Z,0.70
2022-08-27T09:19:08.971Z,0.60
2022-08-27T09:21:55.867Z,0.60
2022-08-27T09:24:46.479Z,0.60
2022-08-27T09:27:16.124Z,0.73
2022-08-27T09:29:56.259Z,0.60
2022-08-27T09:32:32.795Z,0.57
2022-08-27T09:35:05.251Z,0.60
2022-08-27T09:37:41.143Z,0.50
2022-08-27T09:40:22.397Z,0.50
2022-08-27T09:43:09.619Z,0.70
2022-08-27T09:45:38.049Z,0.67
2022-08-27T09:48:14.924Z,0.60
2022-08-27T09:50:55.823Z,0.53
2022-08-27T09:53:45.490Z,0.50
2022-08-27T09:56:32.176Z,0.50
2022-08-27T09:59:11.128Z,0.70
2022-08-27T10:02:16.642Z,0.63
2022-08-27T10:04:51.025Z,0.60
2022-08-27T10:07:42.703Z,0.50
2022-08-27T10:10:44.611Z,0.70
2022-08-27T10:13:25.786Z,0.93
2022-08-27T10:16:28.037Z,0.80
2022-08-27T10:19:02.237Z,0.93
2022-08-27T10:21:55.420Z,1.30
2022-08-27T10:24:40.095Z,1.30
2022-08-27T10:27:26.941Z,1.30
2022-08-27T10:30:08.912Z,1.27
2022-08-27T10:32:44.634Z,1.50
2022-08-27T10:35:17.435Z,1.27
2022-08-27T10:37:46.400Z,2.40
2022-08-27T10:40:44.406Z,1.90
2022-08-27T10:43:37.235Z,1.73
2022-08-27T10:46:27.233Z,1.83
2022-08-27T10:49:21.304Z,1.57
2022-08-27T10:51:59.763Z,1.67
2022-08-27T10:54:45.559Z,1.50
2022-08-27T10:57:55.214Z,2.00
2022-08-27T11:00:26.005Z,1.77
2022-08-27T11:02:59.253Z,1.43
2022-08-27T11:05:41.406Z,1.60
2022-08-27T11:08:29.659Z,1.70
2022-08-27T11:11:49.876Z,2.27
2022-08-27T11:14:01.170Z,2.10
2022-08-27T11:16:45.539Z,1.60
2022-08-27T11:19:27.221Z,2.00
2022-08-27T11:22:17.045Z,2.00
2022-08-27T11:25:11.810Z,1.80
2022-08-27T11:27:41.884Z,2.20
2022-08-27T11:30:21.099Z,3.40
2022-08-27T11:33:16.584Z,2.27
2022-08-27T11:36:14.184Z,2.00
2022-08-27T11:38:54.815Z,1.67
2022-08-27T11:41:53.776Z,2.50
2022-08-27T11:44:26.422Z,1.77
2022-08-27T11:47:15.465Z,2.17
2022-08-27T11:49:51.986Z,2.07
2022-08-27T11:52:54.822Z,2.00
2022-08-27T11:55:23.272Z,1.67
2022-08-27T11:58:09.531Z,2.20
2022-08-27T12:00:43.331Z,1.90
2022-08-27T12:03:29.296Z,1.83
2022-08-27T12:05:57.671Z,2.23
2022-08-27T12:08:26.222Z,1.90
2022-08-27T12:10:57.427Z,2.07
2022-08-27T12:13:59.700Z,2.10
2022-08-27T12:16:49.082Z,2.50
2022-08-27T12:19:32.928Z,2.07
2022-08-27T12:22:10.546Z,2.20
2022-08-27T12:24:50.387Z,2.53
2022-08-27T12:27:25.229Z,2.70
2022-08-27T12:30:01.175Z,2.33
2022-08-27T12:32:42.866Z,2.30
2022-08-27T12:35:38.156Z,2.00
2022-08-27T12:38:38.815Z,2.10
2022-08-27T12:41:10.812Z,2.00
2022-08-27T12:43:44.201Z,2.17
2022-08-27T12:46:19.010Z,2.27
2022-08-27T12:48:49.304Z,2.20
2022-08-27T12:51:42.688Z,2.27
2022-08-27T12:54:35.631Z,2.60
2022-08-27T12:57:19.466Z,2.27
2022-08-27T12:59:57.061Z,2.30
2022-08-27T13:02:36.942Z,2.30
2022-08-27T13:05:10.083Z,2.23
2022-08-27T13:07:47.378Z,2.07
2022-08-27T13:10:29.859Z,2.60
2022-08-27T13:13:16.031Z,2.63
2022-08-27T13:15:54.057Z,3.17
2022-08-27T13:18:24.599Z,3.07
2022-08-27T13:21:15.114Z,2.43
2022-08-27T13:23:51.951Z,2.20
2022-08-27T13:26:25.424Z,2.33
2022-08-27T13:28:54.487Z,2.30
2022-08-27T13:31:30.265Z,2.97
2022-08-27T13:33:59.818Z,2.77
2022-08-27T13:36:32.145Z,2.67
2022-08-27T13:39:03.820Z,2.87
2022-08-27T13:41:35.929Z,3.00
2022-08-27T13:44:11.751Z,2.80
2022-08-27T13:47:00.962Z,2.80
2022-08-27T13:49:33.594Z,2.70
2022-08-27T13:52:33.761Z,2.80
2022-08-27T13:55:11.300Z,2.30
2022-08-27T13:57:48.049Z,2.43
2022-08-27T14:00:22.128Z,3.00
2022-08-27T14:02:55.453Z,2.53
2022-08-27T14:05:25.567Z,2.80
2022-08-27T14:08:03.198Z,2.80
2022-08-27T14:10:31.906Z,2.80
2022-08-27T14:13:09.722Z,2.77
2022-08-27T14:15:43.022Z,2.10
2022-08-27T14:18:57.336Z,2.63
2022-08-27T14:21:23.074Z,3.23
2022-08-27T14:23:52.624Z,2.30
2022-08-27T14:26:21.352Z,2.20
2022-08-27T14:28:51.859Z,2.80
2022-08-27T14:31:20.368Z,2.57
2022-08-27T14:33:49.904Z,2.77
2022-08-27T14:36:18.411Z,2.57
2022-08-27T14:38:50.297Z,1.90
2022-08-27T14:41:21.799Z,2.23
2022-08-27T14:43:51.057Z,2.50
2022-08-27T14:46:29.976Z,3.37
2022-08-27T14:49:02.684Z,2.50
2022-08-27T14:51:36.693Z,2.87
2022-08-27T14:54:05.995Z,2.30
2022-08-27T14:56:34.349Z,2.03
2022-08-27T14:59:03.143Z,2.90
2022-08-27T15:01:31.767Z,2.63
2022-08-27T15:04:00.504Z,2.73
2022-08-27T15:06:29.173Z,2.77
2022-08-27T15:08:58.519Z,2.47
2022-08-27T15:11:30.658Z,2.33
2022-08-27T15:14:01.073Z,2.80
2022-08-27T15:16:39.329Z,2.63
2022-08-27T15:19:10.620Z,2.60
2022-08-27T15:21:42.919Z,2.20
2022-08-27T15:24:34.899Z,3.20
2022-08-27T15:27:03.387Z,2.47
2022-08-27T15:29:32.140Z,2.80
2022-08-27T15:32:00.620Z,2.80
2022-08-27T15:34:29.839Z,2.53
2022-08-27T15:36:58.308Z,2.50
2022-08-27T15:39:27.854Z,2.70
2022-08-27T15:42:06.334Z,2.90
2022-08-27T15:44:36.731Z,3.00
2022-08-27T15:47:05.307Z,2.53
2022-08-27T15:49:34.410Z,2.83
2022-08-27T15:52:02.874Z,2.60
2022-08-27T15:54:33.213Z,2.43
2022-08-27T15:57:01.684Z,2.20
2022-08-27T15:59:30.995Z,3.10
2022-08-27T16:02:00.335Z,2.10
2022-08-27T16:04:29.670Z,2.30
2022-08-27T16:06:58.054Z,2.57
2022-08-27T16:09:26.889Z,2.50
2022-08-27T16:11:55.279Z,2.97
2022-08-27T16:14:24.017Z,2.30
2022-08-27T16:16:52.551Z,2.83
2022-08-27T16:19:22.868Z,2.90
2022-08-27T16:21:54.022Z,2.63
2022-08-27T16:24:23.490Z,2.83
2022-08-27T16:26:52.319Z,2.83
2022-08-27T16:29:20.735Z,2.60
2022-08-27T16:31:49.866Z,3.20
2022-08-27T16:34:22.870Z,2.30
2022-08-27T16:36:51.870Z,2.63
2022-08-27T16:39:20.489Z,2.43
2022-08-27T16:41:49.496Z,3.30
2022-08-27T16:44:18.436Z,3.10
2022-08-27T16:46:46.862Z,2.07
2022-08-27T16:49:33.865Z,2.70
2022-08-27T16:52:02.389Z,2.80
2022-08-27T16:54:30.824Z,2.60
2022-08-27T16:56:59.335Z,2.63
2022-08-27T16:59:27.747Z,2.10
2022-08-27T17:01:57.344Z,2.70
2022-08-27T17:04:31.468Z,2.60
2022-08-27T17:07:06.595Z,2.67
2022-08-27T17:09:35.804Z,2.63
2022-08-27T17:12:06.120Z,2.87
2022-08-27T17:14:39.626Z,3.10
2022-08-27T17:17:10.204Z,1.90
2022-08-27T17:19:38.652Z,2.57
2022-08-27T17:22:10.266Z,2.93
2022-08-27T17:24:38.758Z,2.20
2022-08-27T17:27:07.536Z,2.43
2022-08-27T17:29:36.057Z,2.20
2022-08-27T17:32:09.829Z,2.37
2022-08-27T17:34:38.327Z,1.97
2022-08-27T17:37:06.789Z,2.40
2022-08-27T17:39:35.312Z,2.50
2022-08-27T17:42:03.851Z,2.30
2022-08-27T17:44:36.020Z,2.43
2022-08-27T17:47:08.261Z,3.10
2022-08-27T17:49:37.732Z,3.00
2022-08-27T17:52:11.948Z,2.57
2022-08-27T17:54:49.182Z,2.30
2022-08-27T17:57:23.219Z,2.60
2022-08-27T17:59:52.121Z,2.00
2022-08-27T18:02:43.313Z,2.37
2022-08-27T18:05:14.097Z,2.07
2022-08-27T18:07:43.596Z,1.90
2022-08-27T18:10:14.673Z,2.30
2022-08-27T18:12:44.338Z,2.47
2022-08-27T18:15:21.391Z,2.70
2022-08-27T18:17:53.294Z,2.20
2022-08-27T18:20:24.327Z,2.60
2022-08-27T18:22:53.672Z,2.30
2022-08-27T18:25:25.767Z,2.20
2022-08-27T18:27:57.822Z,1.83
2022-08-27T18:30:26.756Z,2.60
2022-08-27T18:32:55.280Z,2.70
2022-08-27T18:35:29.671Z,3.43
2022-08-27T18:37:58.915Z,3.00
2022-08-27T18:40:32.319Z,2.30
2022-08-27T18:43:00.853Z,2.23
2022-08-27T18:45:30.099Z,2.10
2022-08-27T18:48:01.074Z,2.43
2022-08-27T18:50:29.539Z,2.83
2022-08-27T18:52:58.711Z,2.70
2022-08-27T18:55:29.033Z,2.77
2022-08-27T18:57:57.595Z,2.40
2022-08-27T19:00:26.047Z,2.60
2022-08-27T19:02:54.855Z,2.80
2022-08-27T19:05:27.509Z,2.37
2022-08-27T19:07:57.394Z,2.70
2022-08-27T19:10:27.720Z,2.37
2022-08-27T19:12:56.353Z,1.90
2022-08-27T19:15:24.748Z,2.50
2022-08-27T19:17:56.921Z,2.63
2022-08-27T19:20:25.987Z,2.00
2022-08-27T19:22:55.203Z,2.23
2022-08-27T19:25:23.956Z,2.43
2022-08-27T19:27:53.315Z,2.40
2022-08-27T19:30:22.415Z,2.00
2022-08-27T19:32:54.730Z,2.23
2022-08-27T19:35:27.107Z,2.47
2022-08-27T19:37:55.601Z,2.20
2022-08-27T19:40:24.526Z,2.23
2022-08-27T19:42:53.096Z,2.27
2022-08-27T19:45:23.694Z,2.30
2022-08-27T19:47:54.403Z,2.37
2022-08-27T19:50:23.980Z,2.70
2022-08-27T19:52:53.559Z,2.40
2022-08-27T19:55:22.328Z,2.63
2022-08-27T19:57:51.013Z,2.50
2022-08-27T20:00:22.986Z,2.97
2022-08-27T20:02:51.845Z,4.73
2022-08-27T20:05:22.158Z,2.00
2022-08-27T20:07:52.768Z,2.60
2022-08-27T20:10:25.772Z,2.20
2022-08-27T20:13:00.687Z,2.30
2022-08-27T20:15:29.092Z,1.90
2022-08-27T20:18:00.029Z,2.50
2022-08-27T20:20:30.163Z,2.00
2022-08-27T20:23:03.402Z,2.20
2022-08-27T20:25:32.507Z,2.43
2022-08-27T20:28:12.277Z,2.07
2022-08-27T20:30:49.571Z,1.90
2022-08-27T20:33:18.035Z,2.23
2022-08-27T20:35:46.564Z,2.07
2022-08-27T20:38:14.995Z,2.07
2022-08-27T20:40:43.552Z,2.23
2022-08-27T20:43:12.039Z,2.37
2022-08-27T20:45:42.438Z,2.10
2022-08-27T20:48:12.776Z,2.17
2022-08-27T20:50:41.492Z,2.17
2022-08-27T20:53:10.372Z,2.10
2022-08-27T20:55:38.792Z,2.40
2022-08-27T20:58:25.474Z,2.93
2022-08-27T21:00:55.528Z,2.37
2022-08-27T21:03:24.839Z,2.07
2022-08-27T21:05:53.453Z,2.60
2022-08-27T21:08:23.069Z,2.03
2022-08-27T21:10:54.447Z,2.10
2022-08-27T21:13:23.528Z,1.80
2022-08-27T21:15:52.428Z,2.00
2022-08-27T21:18:29.633Z,1.90
2022-08-27T21:20:59.730Z,2.50
2022-08-27T21:23:29.856Z,2.10
2022-08-27T21:26:03.372Z,2.13
2022-08-27T21:28:32.023Z,1.70
2022-08-27T21:31:00.389Z,2.87
2022-08-27T21:33:28.792Z,2.60
2022-08-27T21:35:57.236Z,1.90
2022-08-27T21:38:26.461Z,2.20
2022-08-27T21:40:54.931Z,2.20
2022-08-27T21:43:24.490Z,2.33
2022-08-27T21:45:58.153Z,2.40
2022-08-27T21:48:27.767Z,2.10
2022-08-27T21:50:56.206Z,1.90
2022-08-27T21:53:24.980Z,1.60
2022-08-27T21:55:55.172Z,2.03
2022-08-27T21:58:26.549Z,2.13
2022-08-27T22:00:55.428Z,2.00
2022-08-27T22:03:25.089Z,1.70
2022-08-27T22:05:53.834Z,1.70
2022-08-27T22:08:23.072Z,1.60
2022-08-27T22:10:56.199Z,1.77
2022-08-27T22:13:25.040Z,1.80
2022-08-27T22:15:53.488Z,1.30
2022-08-27T22:18:23.086Z,1.87
2022-08-27T22:20:53.342Z,1.97
2022-08-27T22:23:22.064Z,1.90
2022-08-27T22:25:50.648Z,1.50
2022-08-27T22:28:20.499Z,1.87
2022-08-27T22:30:48.893Z,2.47
2022-08-27T22:33:18.326Z,2.37
2022-08-27T22:35:46.852Z,1.90
2022-08-27T22:38:15.455Z,1.80
2022-08-27T22:40:44.008Z,1.70
2022-08-27T22:43:12.993Z,2.07
2022-08-27T22:45:41.384Z,2.07
2022-08-27T22:48:10.314Z,2.20
2022-08-27T22:50:39.900Z,1.93
2022-08-27T22:53:08.586Z,2.00
2022-08-27T22:55:37.207Z,2.27
2022-08-27T22:58:06.934Z,2.33
2022-08-27T23:00:38.772Z,2.17
2022-08-27T23:03:10.863Z,2.10
2022-08-27T23:05:41.679Z,2.00
2022-08-27T23:08:12.117Z,1.77
2022-08-27T23:10:41.412Z,2.20
2022-08-27T23:13:24.149Z,2.60
2022-08-27T23:15:52.857Z,2.43
2022-08-27T23:18:21.296Z,2.23
2022-08-27T23:20:49.658Z,2.10
2022-08-27T23:23:20.274Z,1.97
2022-08-27T23:26:07.292Z,2.40
2022-08-27T23:28:35.743Z,2.47
2022-08-27T23:31:04.136Z,2.67
2022-08-27T23:33:32.559Z,2.10
2022-08-27T23:36:01.005Z,1.90
2022-08-27T23:38:29.524Z,2.60
2022-08-27T23:40:58.550Z,1.93
2022-08-27T23:43:28.690Z,1.70
2022-08-27T23:45:57.545Z,1.73
2022-08-27T23:48:26.030Z,1.87
2022-08-27T23:50:55.548Z,1.93
2022-08-27T23:53:23.995Z,1.80
2022-08-27T23:55:52.394Z,2.20
2022-08-27T23:58:20.816Z,1.90
